Time;durP1;ratioP1;P1;durP2;ratioP2;P2;SDS_P1;SDS_P2;PMS_P1;PMS_P2;Temp;Humidity;BMP_temperature;BMP_pressure;BME280_temperature;BME280_humidity;BME280_pressure;Samples;Min_cycle;Max_cycle;Signal;HPM_P1;HPM_P2
2022/01/26 00:13:16;;;;;;;1999.90;999.90;;;;;;;6.35;82.62;102510.00;15490653;28;20038;-64
2022/01/26 00:20:56;;;;;;;1999.90;999.90;;;;;;;6.33;82.68;102518.56;15472359;28;20491;-66
2022/01/26 00:28:36;;;;;;;1999.90;999.90;;;;;;;6.29;82.34;102513.81;15476325;28;20093;-66
2022/01/26 00:44:01;;;;;;;1999.90;999.90;;;;;;;6.52;81.24;102502.41;15461964;28;20054;-64
2022/01/26 00:51:35;;;;;;;1999.90;999.90;;;;;;;6.55;81.64;102498.25;15503296;28;20606;-63
2022/01/26 00:59:07;;;;;;;1999.90;999.90;;;;;;;6.76;80.54;102502.06;15467696;28;20050;-64
2022/01/26 01:06:47;;;;;;;1999.90;999.90;;;;;;;6.45;81.43;102500.94;15482770;28;20066;-64
2022/01/26 01:14:23;;;;;;;1999.90;999.90;;;;;;;6.81;79.60;102510.44;15499859;28;20121;-63
2022/01/26 01:22:28;;;;;;;1999.90;999.90;;;;;;;6.42;81.30;102510.63;15481682;28;20043;-64
2022/01/26 01:30:08;;;;;;;1999.90;999.90;;;;;;;6.79;80.61;102510.72;15461081;28;20521;-66
2022/01/26 01:37:42;;;;;;;1999.90;999.90;;;;;;;6.71;80.86;102513.97;15465052;28;20050;-62
2022/01/26 01:45:16;;;;;;;1999.90;999.90;;;;;;;6.22;81.93;102505.69;15449180;28;20101;-64
2022/01/26 01:52:50;;;;;;;1999.90;999.90;;;;;;;6.55;81.22;102498.25;15480889;28;20100;-64
2022/01/26 02:00:28;;;;;;;1999.90;999.90;;;;;;;6.57;81.42;102498.88;15463702;28;20057;-62
2022/01/26 02:08:05;;;;;;;1999.90;999.90;;;;;;;6.50;81.34;102489.91;15497221;28;20046;-65
2022/01/26 02:15:54;;;;;;;1999.90;999.90;;;;;;;6.14;82.16;102480.38;15479449;28;20115;-64
2022/01/26 02:55:32;;;;;;;1999.90;999.90;;;;;;;5.87;83.10;102452.63;15423755;28;20527;-64
2022/01/26 03:03:14;;;;;;;1999.90;999.90;;;;;;;6.06;81.46;102453.97;15470275;28;20042;-64
2022/01/26 03:10:52;;;;;;;1999.90;999.90;;;;;;;6.27;81.46;102455.03;15492231;28;20039;-64
2022/01/26 03:18:55;;;;;;;1999.90;999.90;;;;;;;6.27;80.18;102455.03;15484185;28;20093;-64
2022/01/26 03:34:21;;;;;;;1999.90;999.90;;;;;;;6.12;80.41;102444.59;15436604;28;20050;-65
2022/01/26 03:42:03;;;;;;;1999.90;999.90;;;;;;;6.27;79.72;102449.47;15460018;28;20038;-64
2022/01/26 03:49:38;;;;;;;1999.90;999.90;;;;;;;6.36;79.03;102445.13;15474521;28;20125;-64
2022/01/26 03:57:12;;;;;;;1999.90;999.90;;;;;;;5.65;81.40;102444.31;15459631;28;20108;-64
2022/01/26 04:04:52;;;;;;;1999.90;999.90;;;;;;;6.01;80.18;102443.66;15479512;28;20522;-65
2022/01/26 04:12:31;;;;;;;1999.90;999.90;;;;;;;5.85;80.04;102433.47;15486735;28;20050;-66
2022/01/26 04:20:04;;;;;;;1999.90;999.90;;;;;;;6.05;79.41;102432.91;15486599;28;20121;-66
2022/01/26 04:27:48;;;;;;;1999.90;999.90;;;;;;;5.79;79.96;102427.03;15502627;28;20042;-64
2022/01/26 04:35:45;;;;;;;1999.90;999.90;;;;;;;5.50;79.76;102436.63;15486680;28;20138;-64
2022/01/26 04:43:24;;;;;;;1999.90;999.90;;;;;;;5.80;79.20;102422.31;15503932;28;20046;-66
2022/01/26 04:50:56;;;;;;;1999.90;999.90;;;;;;;5.75;79.46;102414.81;15508756;28;20121;-64
2022/01/26 04:58:30;;;;;;;1999.90;999.90;;;;;;;5.74;78.75;102410.38;15504103;28;20038;-64
2022/01/26 05:06:12;;;;;;;1999.90;999.90;;;;;;;5.63;79.08;102403.03;15516466;28;20506;-63
2022/01/26 05:13:46;;;;;;;1999.90;999.90;;;;;;;5.62;78.93;102412.41;15499975;28;20129;-64
2022/01/26 05:21:19;;;;;;;1999.90;999.90;;;;;;;5.38;79.79;102405.47;15499406;28;20080;-67
2022/01/26 05:28:53;;;;;;;1999.90;999.90;;;;;;;5.68;79.10;102405.84;15491296;28;20401;-64
2022/01/26 05:36:26;;;;;;;1999.90;999.90;;;;;;;5.30;79.71;102412.28;15475775;28;20076;-64
2022/01/26 05:44:00;;;;;;;1999.90;999.90;;;;;;;5.46;79.40;102403.09;15485250;28;20088;-66
2022/01/26 05:51:37;;;;;;;1999.90;999.90;;;;;;;5.21;79.84;102409.16;15515675;28;20042;-65
2022/01/26 05:59:12;;;;;;;1999.90;999.90;;;;;;;5.44;80.06;102394.22;15479887;28;20046;-64
2022/01/26 06:06:48;;;;;;;1999.90;999.90;;;;;;;5.40;79.62;102387.50;15463012;28;20518;-65
2022/01/26 06:14:22;;;;;;;1999.90;999.90;;;;;;;5.64;78.26;102395.56;15478591;28;20518;-65
2022/01/26 06:21:54;;;;;;;1999.90;999.90;;;;;;;5.64;77.35;102381.72;15478658;28;20515;-65
2022/01/26 06:29:30;;;;;;;1999.90;999.90;;;;;;;5.67;78.24;102386.72;15465740;28;20042;-65
2022/01/26 06:37:03;;;;;;;1999.90;999.90;;;;;;;5.45;77.80;102395.88;15437482;28;20062;-65
2022/01/26 06:44:47;;;;;;;1999.90;999.90;;;;;;;5.57;77.76;102383.84;15421133;28;20051;-66
2022/01/26 06:52:20;;;;;;;1999.90;999.90;;;;;;;5.64;77.40;102371.47;15420161;28;20298;-64
2022/01/26 06:59:57;;;;;;;1999.90;999.90;;;;;;;5.20;79.03;102378.94;15436399;28;20564;-66
2022/01/26 07:07:29;;;;;;;1999.90;999.90;;;;;;;5.43;78.03;102367.63;15418260;28;20461;-65
2022/01/26 07:22:55;;;;;;;1999.90;999.90;;;;;;;5.59;77.28;102379.72;15433234;28;20118;-65
2022/01/26 07:30:29;;;;;;;1999.90;999.90;;;;;;;5.81;77.07;102374.13;15453341;28;20078;-65
2022/01/26 07:38:04;;;;;;;1999.90;999.90;;;;;;;5.76;76.09;102358.31;15481682;28;20053;-63
2022/01/26 07:45:41;;;;;;;1999.90;999.90;;;;;;;5.55;76.59;102377.72;15495531;28;20491;-65
2022/01/26 07:53:15;;;;;;;1999.90;999.90;;;;;;;5.35;78.08;102373.63;15493083;28;20073;-64
2022/01/26 08:00:49;;;;;;;;;;;;;;;5.48;77.38;102366.84;15494325;28;20038;-65
2022/01/26 08:08:21;;;;;;;1999.90;999.90;;;;;;;5.66;77.32;102382.28;15492203;28;20393;-65
2022/01/26 08:15:57;;;;;;;1999.90;999.90;;;;;;;5.80;77.23;102394.63;15491075;28;20122;-60
2022/01/26 08:23:29;;;;;;;1999.90;999.90;;;;;;;5.29;77.96;102393.19;15470596;28;20427;-57
2022/01/26 08:31:03;;;;;;;1999.90;999.90;;;;;;;5.54;78.44;102384.38;15450466;28;20413;-60
2022/01/26 08:38:37;;;;;;;1999.90;999.90;;;;;;;5.46;78.85;102380.94;15490226;28;20065;-61
2022/01/26 08:46:11;;;;;;;1999.90;999.90;;;;;;;5.77;77.61;102361.91;15472562;28;20125;-62
2022/01/26 08:53:44;;;;;;;1999.90;999.90;;;;;;;5.75;77.47;102361.34;15478020;28;20074;-62
2022/01/26 09:01:21;;;;;;;1999.90;999.90;;;;;;;5.91;78.00;102368.72;15440033;28;20456;-65
2022/01/26 09:09:01;;;;;;;1999.90;999.90;;;;;;;6.08;77.29;102365.84;15440904;28;20523;-65
2022/01/26 09:16:38;;;;;;;1999.90;999.90;;;;;;;5.97;76.16;102375.16;15447769;28;20042;-66
2022/01/26 09:24:11;;;;;;;1999.90;999.90;;;;;;;5.93;76.43;102369.28;15498693;28;20050;-65
2022/01/26 09:31:47;;;;;;;1999.90;999.90;;;;;;;5.83;77.56;102393.25;15476477;28;20136;-67
2022/01/26 09:39:22;;;;;;;1999.90;999.90;;;;;;;6.03;76.60;102383.25;15487164;28;20069;-66
2022/01/26 09:46:56;;;;;;;1999.90;999.90;;;;;;;5.73;77.36;102378.22;15527958;28;20042;-66
2022/01/26 09:54:31;;;;;;;1999.90;999.90;;;;;;;5.53;77.18;102380.75;15496532;28;20472;-65
2022/01/26 10:02:05;;;;;;;1999.90;999.90;;;;;;;5.87;76.71;102377.81;15490531;28;20397;-65
2022/01/26 10:17:41;;;;;;;1999.90;999.90;;;;;;;5.78;77.36;102394.06;15440260;28;20054;-65
2022/01/26 10:25:16;;;;;;;1999.90;999.90;;;;;;;5.96;76.92;102396.50;15548607;23;20046;-63
2022/01/26 10:32:50;;;;;;;1999.90;999.90;;;;;;;5.77;77.33;102390.44;15556197;28;20049;-66
2022/01/26 10:40:26;;;;;;;1999.90;999.90;;;;;;;6.33;76.48;102396.56;15647127;23;20048;-58
2022/01/26 10:48:16;;;;;;;1999.90;999.90;;;;;;;6.00;77.20;102378.25;15673584;28;20048;-57
2022/01/26 10:55:49;;;;;;;1999.90;999.90;;;;;;;6.52;75.98;102390.63;15673276;28;20045;-55
2022/01/26 11:03:23;;;;;;;1999.90;999.90;;;;;;;6.34;75.73;102378.81;15655345;28;20043;-61
2022/01/26 11:10:57;;;;;;;1999.90;999.90;;;;;;;5.77;76.54;102368.28;15671968;28;20525;-60
2022/01/26 11:18:33;;;;;;;1999.90;999.90;;;;;;;6.30;75.81;102385.19;15654408;28;20052;-56
2022/01/26 11:26:23;;;;;;;1999.90;999.90;;;;;;;6.48;75.40;102386.72;15626270;28;20043;-58
2022/01/26 11:33:58;;;;;;;1999.90;999.90;;;;;;;6.42;74.12;102387.78;15670277;28;20515;-55
2022/01/26 11:49:25;;;;;;;1999.90;999.90;;;;;;;6.07;75.78;102359.47;15649264;28;20091;-54
2022/01/26 11:57:05;;;;;;;1999.90;999.90;;;;;;;5.89;76.06;102345.13;15633507;28;20046;-60
2022/01/26 12:04:39;;;;;;;1999.90;999.90;;;;;;;5.90;76.33;102341.25;15642103;28;20080;-56
2022/01/26 12:12:17;;;;;;;1999.90;999.90;;;;;;;5.66;76.71;102338.81;15619412;28;20140;-58
2022/01/26 12:31:59;;;;;;;1999.90;999.90;;;;;;;5.56;76.61;102344.22;15608264;28;20059;-53
2022/01/26 12:35:54;;;;;;;1999.90;999.90;;;;;;;5.12;77.95;102329.59;15622183;28;20121;-58
2022/01/26 12:43:36;;;;;;;1999.90;999.90;;;;;;;5.09;75.82;102308.78;15641448;28;20059;-58
2022/01/26 12:51:12;;;;;;;1999.90;999.90;;;;;;;4.83;75.70;102279.13;15619335;28;20049;-60
2022/01/26 12:58:44;;;;;;;1999.90;999.90;;;;;;;5.04;75.47;102267.22;15652711;28;20072;-60
2022/01/26 13:06:23;;;;;;;1999.90;999.90;;;;;;;4.78;76.53;102287.34;15582994;28;20087;-61
2022/01/26 13:14:16;;;;;;;1999.90;999.90;;;;;;;4.47;76.53;102281.41;15599686;28;20154;-58
2022/01/26 13:30:02;;;;;;;1999.90;999.90;;;;;;;4.94;75.13;102280.94;15653130;28;20056;-58
2022/01/26 13:37:46;;;;;;;1999.90;999.90;;;;;;;4.84;75.63;102276.13;15669116;28;20101;-56
2022/01/26 13:45:47;;;;;;;1999.90;999.90;;;;;;;4.44;76.03;102265.31;15662529;28;20056;-61
2022/01/26 13:53:43;;;;;;;1999.90;999.90;;;;;;;4.96;75.46;102255.78;15637690;28;20394;-55
2022/01/26 14:01:20;;;;;;;1999.90;999.90;;;;;;;4.75;75.61;102266.59;15653932;28;20477;-59
2022/01/26 14:08:56;;;;;;;1999.90;999.90;;;;;;;4.28;76.71;102260.69;15641934;28;20049;-59
2022/01/26 14:16:36;;;;;;;1999.90;999.90;;;;;;;4.40;76.55;102249.50;15676851;28;20158;-58
2022/01/26 14:32:10;;;;;;;1999.90;999.90;;;;;;;3.83;77.19;102256.06;15661153;28;20041;-59
2022/01/26 14:40:21;;;;;;;1999.90;999.90;;;;;;;4.13;75.90;102225.34;15657243;28;20069;-57
2022/01/26 14:56:03;;;;;;;1999.90;999.90;;;;;;;4.57;73.41;102214.34;15514570;28;20102;-54
2022/01/26 15:20:34;;;;;;;1999.90;999.90;;;;;;;4.34;74.56;102212.66;15624323;28;20045;-56
2022/01/26 15:35:41;;;;;;;1999.90;999.90;;;;;;;4.35;75.82;102184.75;15664685;28;20049;-61
2022/01/26 15:51:11;;;;;;;1999.90;999.90;;;;;;;4.38;76.40;102158.56;15617571;28;20458;-54
2022/01/26 15:59:03;;;;;;;1999.90;999.90;;;;;;;4.23;76.96;102158.34;15621773;28;20128;-60
2022/01/26 16:07:00;;;;;;;1999.90;999.90;;;;;;;4.20;77.02;102145.88;15637872;28;20041;-59
2022/01/26 16:38:24;;;;;;;1999.90;999.90;;;;;;;4.23;76.50;102139.00;15627244;28;20045;-55
2022/01/26 17:26:22;;;;;;;1999.90;999.90;;;;;;;4.23;76.73;102126.00;15660545;22;20545;-64
2022/01/26 18:52:12;;;;;;;1999.90;999.90;;;;;;;4.94;75.34;102084.53;15562973;28;20140;-61
2022/01/26 18:59:45;;;;;;;1999.90;999.90;;;;;;;4.56;77.07;102066.97;15571099;28;20343;-62
2022/01/26 19:07:18;;;;;;;1999.90;999.90;;;;;;;4.63;76.73;102075.06;15515497;28;20077;-61
2022/01/26 19:14:55;;;;;;;1999.90;999.90;;;;;;;4.39;77.08;102080.06;15545323;28;20042;-63
2022/01/26 19:31:44;;;;;;;1999.90;999.90;;;;;;;4.78;76.84;102060.56;15522212;28;20104;-59
2022/01/26 19:46:49;;;;;;;1999.90;999.90;;;;;;;4.41;78.33;102060.47;15533414;28;20046;-61
2022/01/26 19:54:22;;;;;;;1999.90;999.90;;;;;;;4.83;77.75;102049.56;15536551;28;20041;-60
2022/01/26 20:01:54;;;;;;;;;;;;;;;4.80;77.61;102044.56;15525972;28;20132;-61
2022/01/26 20:09:32;;;;;;;1999.90;999.90;;;;;;;5.00;78.01;102041.94;15526461;28;19921;-61
2022/01/26 20:17:07;;;;;;;1999.90;999.90;;;;;;;4.89;77.94;102035.50;15524762;28;20129;-62
2022/01/26 20:24:40;;;;;;;1999.90;999.90;;;;;;;4.74;78.77;102029.84;15511473;28;20050;-61
2022/01/26 20:32:13;;;;;;;1999.90;999.90;;;;;;;4.74;78.21;102031.78;15492762;28;20080;-61
2022/01/26 20:39:47;;;;;;;1999.90;999.90;;;;;;;4.93;77.52;102033.06;15513581;28;20463;-58
2022/01/26 20:47:19;;;;;;;1999.90;999.90;;;;;;;4.93;77.17;102038.59;15500425;28;20053;-61
2022/01/26 20:54:52;;;;;;;1999.90;999.90;;;;;;;5.05;76.74;102042.00;15555978;28;20041;-62
2022/01/26 21:02:28;;;;;;;1999.90;999.90;;;;;;;4.81;77.62;102032.41;15579150;28;20367;-61
2022/01/26 21:10:09;;;;;;;1999.90;999.90;;;;;;;4.90;76.98;102017.84;15563256;28;20058;-61
2022/01/26 21:17:41;;;;;;;1999.90;999.90;;;;;;;5.18;76.47;102024.94;15503390;28;20087;-61
2022/01/26 21:25:17;;;;;;;1999.90;999.90;;;;;;;5.20;76.56;102016.38;15510021;28;20521;-61
2022/01/26 21:32:49;;;;;;;1999.90;999.90;;;;;;;5.12;76.87;102011.38;15554049;28;20304;-62
2022/01/26 21:40:22;;;;;;;1999.90;999.90;;;;;;;5.16;77.02;102012.50;15531335;28;20077;-63
2022/01/26 21:47:54;;;;;;;;;;;;;;;5.27;76.49;102005.94;15519328;28;20068;-62
2022/01/26 21:55:28;;;;;;;1999.90;999.90;;;;;;;5.39;76.15;102011.25;15533786;28;19965;-62
2022/01/26 22:03:05;;;;;;;1999.90;999.90;;;;;;;5.30;76.54;101986.00;15548638;28;20050;-62
2022/01/26 22:10:39;;;;;;;1999.90;999.90;;;;;;;5.21;76.79;101984.88;15534027;28;20060;-61
2022/01/26 22:18:16;;;;;;;1999.90;999.90;;;;;;;5.21;77.35;101980.16;15533574;28;20151;-61
2022/01/26 22:25:49;;;;;;;1999.90;999.90;;;;;;;5.49;76.24;101965.09;15549529;28;20050;-61
2022/01/26 22:33:25;;;;;;;1999.90;999.90;;;;;;;5.04;76.90;101968.41;15511142;28;20030;-62
2022/01/26 22:40:58;;;;;;;1999.90;999.90;;;;;;;5.27;76.57;101947.81;15535487;28;20459;-61
2022/01/26 22:48:32;;;;;;;1999.90;999.90;;;;;;;5.17;76.54;101940.28;15548563;28;20281;-62
2022/01/26 22:56:08;;;;;;;1999.90;999.90;;;;;;;5.35;76.98;101966.69;15511809;28;20045;-61
2022/01/26 23:03:42;;;;;;;1999.90;999.90;;;;;;;5.47;76.13;101939.63;15546964;28;20113;-61
2022/01/26 23:11:17;;;;;;;1999.90;999.90;;;;;;;5.48;75.26;101941.28;15531752;28;20120;-62
2022/01/26 23:18:51;;;;;;;1999.90;999.90;;;;;;;5.35;76.46;101922.38;15531851;23;20042;31
2022/01/26 23:26:30;;;;;;;1999.90;999.90;;;;;;;5.38;76.24;101904.41;15549618;28;20094;-66
2022/01/26 23:34:19;;;;;;;1999.90;999.90;;;;;;;5.31;77.01;101898.25;15552204;28;20525;-66
